sensor_id;sensor_type;location;lat;lon;timestamp;pressure;altitude;pressure_sealevel;temperature;humidity
69796;BME280;57073;45.650;9.612;2023-02-17T00:08:14;100496.28;;;9.84;61.90
69796;BME280;57073;45.650;9.612;2023-02-17T00:18:15;100490.06;;;9.68;60.68
69796;BME280;57073;45.650;9.612;2023-02-17T00:28:15;100490.72;;;9.32;60.98
69796;BME280;57073;45.650;9.612;2023-02-17T00:38:16;100487.38;;;9.07;60.86
69796;BME280;57073;45.650;9.612;2023-02-17T00:48:16;100500.28;;;9.04;60.43
69796;BME280;57073;45.650;9.612;2023-02-17T00:58:16;100496.91;;;8.78;61.00
69796;BME280;57073;45.650;9.612;2023-02-17T01:08:17;100493.28;;;8.71;60.67
69796;BME280;57073;45.650;9.612;2023-02-17T01:18:21;100495.63;;;8.66;60.99
69796;BME280;57073;45.650;9.612;2023-02-17T01:28:22;100495.53;;;8.59;61.31
69796;BME280;57073;45.650;9.612;2023-02-17T01:38:22;100484.66;;;8.53;60.70
69796;BME280;57073;45.650;9.612;2023-02-17T01:48:26;100485.56;;;8.45;61.08
69796;BME280;57073;45.650;9.612;2023-02-17T01:58:28;100488.22;;;8.37;61.46
69796;BME280;57073;45.650;9.612;2023-02-17T02:08:34;100468.19;;;8.33;61.20
69796;BME280;57073;45.650;9.612;2023-02-17T02:18:54;100470.16;;;8.39;61.44
69796;BME280;57073;45.650;9.612;2023-02-17T02:39:19;100472.28;;;8.04;61.32
69796;BME280;57073;45.650;9.612;2023-02-17T02:49:20;100463.94;;;7.99;62.25
69796;BME280;57073;45.650;9.612;2023-02-17T03:09:39;100461.66;;;7.71;61.66
69796;BME280;57073;45.650;9.612;2023-02-17T03:19:41;100462.13;;;7.83;62.10
69796;BME280;57073;45.650;9.612;2023-02-17T03:29:41;100457.44;;;7.93;61.72
69796;BME280;57073;45.650;9.612;2023-02-17T03:39:42;100461.59;;;7.96;61.88
69796;BME280;57073;45.650;9.612;2023-02-17T03:49:42;100464.81;;;7.83;61.73
69796;BME280;57073;45.650;9.612;2023-02-17T03:59:42;100460.50;;;7.57;63.10
69796;BME280;57073;45.650;9.612;2023-02-17T04:09:43;100476.38;;;7.42;62.46
69796;BME280;57073;45.650;9.612;2023-02-17T04:19:43;100472.56;;;7.37;63.15
69796;BME280;57073;45.650;9.612;2023-02-17T04:29:43;100483.22;;;7.20;63.26
69796;BME280;57073;45.650;9.612;2023-02-17T04:39:44;100472.56;;;7.37;63.59
69796;BME280;57073;45.650;9.612;2023-02-17T04:49:44;100484.06;;;7.45;62.25
69796;BME280;57073;45.650;9.612;2023-02-17T04:59:44;100476.69;;;7.56;62.38
69796;BME280;57073;45.650;9.612;2023-02-17T05:09:45;100481.53;;;7.52;61.17
69796;BME280;57073;45.650;9.612;2023-02-17T05:19:45;100487.09;;;7.51;62.20
69796;BME280;57073;45.650;9.612;2023-02-17T05:29:45;100483.38;;;7.52;61.26
69796;BME280;57073;45.650;9.612;2023-02-17T05:39:46;100487.38;;;7.72;61.04
69796;BME280;57073;45.650;9.612;2023-02-17T05:49:46;100496.59;;;7.53;61.58
69796;BME280;57073;45.650;9.612;2023-02-17T05:59:46;100493.25;;;7.67;62.21
69796;BME280;57073;45.650;9.612;2023-02-17T06:09:47;100491.91;;;7.39;62.34
69796;BME280;57073;45.650;9.612;2023-02-17T06:19:47;100500.59;;;7.24;62.90
69796;BME280;57073;45.650;9.612;2023-02-17T06:29:47;100510.09;;;7.35;62.10
69796;BME280;57073;45.650;9.612;2023-02-17T06:39:48;100525.63;;;7.48;61.42
69796;BME280;57073;45.650;9.612;2023-02-17T06:49:48;100533.63;;;7.64;61.94
69796;BME280;57073;45.650;9.612;2023-02-17T06:59:48;100541.63;;;7.97;61.03
69796;BME280;57073;45.650;9.612;2023-02-17T07:09:49;100550.50;;;7.98;60.78
69796;BME280;57073;45.650;9.612;2023-02-17T07:19:49;100542.94;;;8.10;60.97
69796;BME280;57073;45.650;9.612;2023-02-17T07:29:50;100557.59;;;8.47;60.05
69796;BME280;57073;45.650;9.612;2023-02-17T07:39:50;100559.00;;;8.74;60.06
69796;BME280;57073;45.650;9.612;2023-02-17T07:49:51;100556.59;;;9.18;58.77
69796;BME280;57073;45.650;9.612;2023-02-17T07:59:52;100567.19;;;9.81;57.36
69796;BME280;57073;45.650;9.612;2023-02-17T08:09:52;100575.13;;;10.27;56.78
69796;BME280;57073;45.650;9.612;2023-02-17T08:20:27;100583.59;;;10.39;56.67
69796;BME280;57073;45.650;9.612;2023-02-17T08:30:28;100597.28;;;10.74;55.38
69796;BME280;57073;45.650;9.612;2023-02-17T08:40:28;100609.34;;;11.15;54.22
69796;BME280;57073;45.650;9.612;2023-02-17T08:50:29;100590.47;;;11.44;53.94
69796;BME280;57073;45.650;9.612;2023-02-17T09:00:29;100592.41;;;11.94;53.24
69796;BME280;57073;45.650;9.612;2023-02-17T09:10:30;100599.22;;;12.18;52.82
69796;BME280;57073;45.650;9.612;2023-02-17T09:20:30;100597.75;;;12.43;51.81
69796;BME280;57073;45.650;9.612;2023-02-17T09:30:30;100589.88;;;12.42;51.54
69796;BME280;57073;45.650;9.612;2023-02-17T09:40:39;100593.16;;;12.72;52.78
69796;BME280;57073;45.650;9.612;2023-02-17T09:50:49;100594.28;;;12.91;52.14
69796;BME280;57073;45.650;9.612;2023-02-17T10:00:57;100605.31;;;12.96;52.60
69796;BME280;57073;45.650;9.612;2023-02-17T10:21:10;100598.06;;;13.58;52.55
69796;BME280;57073;45.650;9.612;2023-02-17T10:31:14;100593.91;;;13.69;53.01
69796;BME280;57073;45.650;9.612;2023-02-17T10:41:22;100590.81;;;13.86;52.98
69796;BME280;57073;45.650;9.612;2023-02-17T10:51:27;100575.88;;;13.90;52.24
69796;BME280;57073;45.650;9.612;2023-02-17T11:01:27;100567.56;;;13.91;52.01
69796;BME280;57073;45.650;9.612;2023-02-17T11:11:30;100552.22;;;13.85;51.37
69796;BME280;57073;45.650;9.612;2023-02-17T11:21:31;100538.91;;;13.90;51.36
69796;BME280;57073;45.650;9.612;2023-02-17T11:31:32;100517.75;;;13.87;51.66
69796;BME280;57073;45.650;9.612;2023-02-17T11:41:38;100504.03;;;14.09;51.65
69796;BME280;57073;45.650;9.612;2023-02-17T12:12:30;100466.19;;;14.22;50.53
69796;BME280;57073;45.650;9.612;2023-02-17T12:43:43;100424.97;;;14.47;49.58
69796;BME280;57073;45.650;9.612;2023-02-17T12:53:52;100412.88;;;14.56;49.21
69796;BME280;57073;45.650;9.612;2023-02-17T13:03:54;100409.94;;;14.64;48.98
69796;BME280;57073;45.650;9.612;2023-02-17T13:13:54;100404.13;;;14.67;48.84
69796;BME280;57073;45.650;9.612;2023-02-17T13:33:58;100374.88;;;14.57;47.89
69796;BME280;57073;45.650;9.612;2023-02-17T13:44:14;100366.97;;;14.56;47.58
69796;BME280;57073;45.650;9.612;2023-02-17T13:54:20;100357.59;;;14.65;47.85
69796;BME280;57073;45.650;9.612;2023-02-17T14:04:24;100337.81;;;14.65;47.82
69796;BME280;57073;45.650;9.612;2023-02-17T14:14:31;100334.38;;;14.51;47.52
69796;BME280;57073;45.650;9.612;2023-02-17T14:24:35;100340.13;;;14.61;47.70
69796;BME280;57073;45.650;9.612;2023-02-17T14:34:36;100335.19;;;14.58;47.21
69796;BME280;57073;45.650;9.612;2023-02-17T14:44:37;100332.47;;;14.58;48.17
69796;BME280;57073;45.650;9.612;2023-02-17T14:54:38;100326.06;;;14.52;48.11
69796;BME280;57073;45.650;9.612;2023-02-17T15:04:38;100320.44;;;14.54;47.94
69796;BME280;57073;45.650;9.612;2023-02-17T15:14:38;100314.31;;;14.33;47.98
69796;BME280;57073;45.650;9.612;2023-02-17T15:24:39;100312.78;;;14.44;48.35
69796;BME280;57073;45.650;9.612;2023-02-17T15:34:40;100301.69;;;14.27;48.18
69796;BME280;57073;45.650;9.612;2023-02-17T15:44:46;100307.53;;;14.17;48.82
69796;BME280;57073;45.650;9.612;2023-02-17T15:54:46;100307.59;;;14.11;48.42
69796;BME280;57073;45.650;9.612;2023-02-17T16:04:47;100322.53;;;14.07;48.83
69796;BME280;57073;45.650;9.612;2023-02-17T16:14:47;100333.19;;;14.02;48.61
69796;BME280;57073;45.650;9.612;2023-02-17T16:24:48;100325.28;;;14.00;49.26
69796;BME280;57073;45.650;9.612;2023-02-17T16:34:48;100340.47;;;13.94;49.18
69796;BME280;57073;45.650;9.612;2023-02-17T16:44:49;100328.69;;;13.82;49.24
69796;BME280;57073;45.650;9.612;2023-02-17T16:54:50;100336.63;;;13.64;49.81
69796;BME280;57073;45.650;9.612;2023-02-17T17:04:50;100366.31;;;13.57;50.47
69796;BME280;57073;45.650;9.612;2023-02-17T17:14:51;100366.75;;;13.34;50.53
69796;BME280;57073;45.650;9.612;2023-02-17T17:24:51;100386.66;;;13.13;52.07
69796;BME280;57073;45.650;9.612;2023-02-17T17:34:51;100388.69;;;12.97;52.38
69796;BME280;57073;45.650;9.612;2023-02-17T17:44:52;100392.59;;;12.81;53.25
69796;BME280;57073;45.650;9.612;2023-02-17T17:54:52;100394.84;;;12.64;54.61
69796;BME280;57073;45.650;9.612;2023-02-17T18:04:52;100412.88;;;12.64;56.16
69796;BME280;57073;45.650;9.612;2023-02-17T18:14:54;100410.59;;;12.61;56.97
69796;BME280;57073;45.650;9.612;2023-02-17T18:24:54;100426.53;;;12.56;56.67
69796;BME280;57073;45.650;9.612;2023-02-17T18:34:55;100428.38;;;12.55;56.67
69796;BME280;57073;45.650;9.612;2023-02-17T18:44:57;100438.63;;;12.25;56.05
69796;BME280;57073;45.650;9.612;2023-02-17T18:54:57;100448.59;;;12.38;57.23
69796;BME280;57073;45.650;9.612;2023-02-17T19:04:58;100444.34;;;12.08;57.77
69796;BME280;57073;45.650;9.612;2023-02-17T19:14:58;100457.97;;;12.00;58.53
69796;BME280;57073;45.650;9.612;2023-02-17T19:24:59;100475.16;;;11.78;57.84
69796;BME280;57073;45.650;9.612;2023-02-17T19:34:59;100468.06;;;11.70;58.95
69796;BME280;57073;45.650;9.612;2023-02-17T19:44:59;100484.31;;;11.62;58.29
69796;BME280;57073;45.650;9.612;2023-02-17T19:55:00;100488.28;;;11.16;59.12
69796;BME280;57073;45.650;9.612;2023-02-17T20:05:00;100489.31;;;11.37;59.20
69796;BME280;57073;45.650;9.612;2023-02-17T20:15:01;100491.84;;;11.45;60.31
69796;BME280;57073;45.650;9.612;2023-02-17T20:25:01;100492.13;;;11.28;58.98
69796;BME280;57073;45.650;9.612;2023-02-17T20:35:02;100507.59;;;11.05;60.72
69796;BME280;57073;45.650;9.612;2023-02-17T20:45:02;100512.78;;;11.06;60.08
69796;BME280;57073;45.650;9.612;2023-02-17T20:55:03;100507.59;;;11.05;59.83
69796;BME280;57073;45.650;9.612;2023-02-17T21:05:03;100497.41;;;11.00;59.00
69796;BME280;57073;45.650;9.612;2023-02-17T21:15:04;100498.59;;;10.76;58.79
69796;BME280;57073;45.650;9.612;2023-02-17T21:25:04;100515.56;;;10.62;59.73
69796;BME280;57073;45.650;9.612;2023-02-17T21:35:08;100509.75;;;10.43;59.11
69796;BME280;57073;45.650;9.612;2023-02-17T21:45:08;100507.97;;;10.21;61.06
69796;BME280;57073;45.650;9.612;2023-02-17T21:55:08;100496.03;;;10.23;60.32
69796;BME280;57073;45.650;9.612;2023-02-17T22:05:09;100504.09;;;10.08;59.40
69796;BME280;57073;45.650;9.612;2023-02-17T22:15:09;100498.88;;;9.92;59.81
69796;BME280;57073;45.650;9.612;2023-02-17T22:25:10;100502.41;;;9.92;61.29
69796;BME280;57073;45.650;9.612;2023-02-17T22:35:10;100479.09;;;9.93;60.99
69796;BME280;57073;45.650;9.612;2023-02-17T22:45:13;100486.94;;;9.79;60.28
69796;BME280;57073;45.650;9.612;2023-02-17T22:55:13;100483.78;;;9.61;61.62
69796;BME280;57073;45.650;9.612;2023-02-17T23:05:15;100476.72;;;9.60;60.79
69796;BME280;57073;45.650;9.612;2023-02-17T23:15:15;100475.44;;;9.56;62.43
69796;BME280;57073;45.650;9.612;2023-02-17T23:25:16;100487.13;;;9.40;61.60
69796;BME280;57073;45.650;9.612;2023-02-17T23:35:17;100472.25;;;9.37;62.62
69796;BME280;57073;45.650;9.612;2023-02-17T23:45:17;100476.88;;;9.20;62.17
69796;BME280;57073;45.650;9.612;2023-02-17T23:55:17;100470.81;;;9.04;62.57
